Nobility — D5AX9 — position and weather

sailwx.info

Track history (hours):
 
Tides and Currents Weather Stations Pressure Air Temp Water Temp Dewpoint Dewpoint Depression Visibility Wind Speed Wind Dir Waves Ship Positions

Nobility

Last reported at 2018-Jun-21 19:08 UTC. Time now 2018-Jun-22 00:00 UTC.
Position N 34°25' E 134°10'.

Length 146 m; draft 7.2 m.

Type: Ship (hazmat cat A). MMSI: 636015465.

Date/timePositionNaut miles runAvg speedWind from/ knotsBaromVisibWave heightAir tempDewpointWater temp
2018-Jun-21 19:08N 34°25' E 134°10'215.6
2018-Jun-21 19:00N 34°25' E 134°12'715.0
2018-Jun-21 18:30N 34°25' E 134°21'815.0
2018-Jun-21 18:00N 34°28' E 134°30'714.9
2018-Jun-21 17:30N 34°30' E 134°38'815.1
2018-Jun-21 17:00N 34°33' E 134°47'816.1
2018-Jun-21 16:30N 34°37' E 134°56'713.8
2018-Jun-21 16:00N 34°36' E 135°04'714.0
2018-Jun-21 15:30N 34°36' E 135°12'612.2
2018-Jun-21 15:00N 34°40' E 135°18'1 2.6
2018-Jun-21 14:26N 34°41' E 135°17'0 0.1
2018-Jun-21 13:56N 34°41' E 135°17'0 0.0
2018-Jun-21 13:29N 34°41' E 135°17'0 0.0
2018-Jun-21 12:59N 34°41' E 135°17'0 0.0
2018-Jun-21 12:29N 34°41' E 135°17'0 0.0
2018-Jun-21 11:56N 34°41' E 135°17'0 0.0
2018-Jun-21 11:29N 34°41' E 135°17'0 0.0
2018-Jun-21 10:50N 34°41' E 135°17'0 0.0
2018-Jun-21 10:20N 34°41' E 135°17'0 0.0
2018-Jun-21 09:56N 34°41' E 135°17'0 0.0
2018-Jun-21 09:26N 34°41' E 135°17'0 0.0
2018-Jun-21 08:50N 34°41' E 135°17'0 0.0
2018-Jun-21 08:30N 34°41' E 135°17'1 1.9
2018-Jun-21 08:00N 34°41' E 135°18'611.4
2018-Jun-21 07:31N 34°35' E 135°17'714.8
2018-Jun-21 07:01N 34°29' E 135°12'815.2
2018-Jun-21 06:30N 34°24' E 135°05'815.0
2018-Jun-21 06:01N 34°18' E 134°60'815.8
2018-Jun-21 05:31N 34°10' E 134°59'815.3
2018-Jun-21 05:01N 34°03' E 134°59'815.4
2018-Jun-21 04:30N 33°55' E 134°59'714.4
2018-Jun-21 04:01N 33°48' E 135°02'815.4
2018-Jun-21 03:31N 33°43' E 135°08'815.4
2018-Jun-21 02:59N 33°36' E 135°14'3 0.1
2018-Jun-19 08:20N 33°38' E 135°12'1212.4
2018-Jun-19 07:21N 33°48' E 135°03'512.5
2018-Jun-19 06:56N 33°52' E 134°59'512.1
2018-Jun-19 06:30N 33°57' E 134°58'612.7
2018-Jun-19 06:00N 34°04' E 134°58'612.9
2018-Jun-19 05:30N 34°10' E 134°58'713.3
2018-Jun-19 05:00N 34°17' E 134°58'612.4
2018-Jun-19 04:30N 34°23' E 135°00'612.5
2018-Jun-19 04:00N 34°29' E 135°02'612.2
2018-Jun-19 03:31N 34°35' E 135°04'510.1
2018-Jun-19 02:59N 34°37' E 134°58'612.4
2018-Jun-19 02:30N 34°34' E 134°51'612.5
2018-Jun-19 02:00N 34°32' E 134°45'713.2
2018-Jun-19 01:30N 34°29' E 134°37'713.4
2018-Jun-19 01:00N 34°27' E 134°30'713.3
2018-Jun-19 00:30N 34°24' E 134°22'713.2
2018-Jun-18 23:59N 34°24' E 134°14'  
2018-Jun-14 20:59N 34°25' E 134°13'714.6
2018-Jun-14 20:30N 34°25' E 134°22'714.6
2018-Jun-14 20:00N 34°28' E 134°30'714.7
2018-Jun-14 19:30N 34°30' E 134°38'714.4
2018-Jun-14 19:00N 34°33' E 134°46'713.6
2018-Jun-14 18:30N 34°35' E 134°54'611.8
2018-Jun-14 17:59N 34°37' E 135°01'611.8
2018-Jun-14 17:30N 34°36' E 135°08'714.1
2018-Jun-14 17:00N 34°37' E 135°16'4 8.4
2018-Jun-14 16:30N 34°41' E 135°17'0 0.5
2018-Jun-14 16:00N 34°41' E 135°17'0 0.0
2018-Jun-14 15:30N 34°41' E 135°17'0 0.0
2018-Jun-14 14:54N 34°41' E 135°17'0 0.0
2018-Jun-14 14:30N 34°41' E 135°17'0 0.0
2018-Jun-14 14:00N 34°41' E 135°17'0 0.0
2018-Jun-14 13:30N 34°41' E 135°17'0 0.0
2018-Jun-14 13:00N 34°41' E 135°17'0 0.0
2018-Jun-14 12:30N 34°41' E 135°17'0 0.0
2018-Jun-14 12:00N 34°41' E 135°17'0 0.0
2018-Jun-14 11:30N 34°41' E 135°17'0 0.0
2018-Jun-14 11:00N 34°41' E 135°17'0 0.0
2018-Jun-14 10:30N 34°41' E 135°17'0 0.0
2018-Jun-14 10:00N 34°41' E 135°17'0 0.0
2018-Jun-14 09:30N 34°41' E 135°17'0 0.0
2018-Jun-14 09:00N 34°41' E 135°17'0 0.0
2018-Jun-14 08:30N 34°41' E 135°17'0 0.0
2018-Jun-14 08:00N 34°41' E 135°17'0 0.0
2018-Jun-14 07:30N 34°41' E 135°17'0 0.7
2018-Jun-14 07:01N 34°41' E 135°18'5 9.1
2018-Jun-14 06:29N 34°37' E 135°18'611.8
2018-Jun-14 06:00N 34°32' E 135°15'612.2
2018-Jun-14 05:31N 34°27' E 135°10'611.8
2018-Jun-14 05:00N 34°23' E 135°05'612.0
2018-Jun-14 04:31N 34°19' E 134°60'5 9.8
2018-Jun-14 04:00N 34°14' E 134°59'611.1
2018-Jun-14 03:31N 34°09' E 134°59'612.5
2018-Jun-14 03:01N 34°02' E 134°59'612.6
2018-Jun-14 02:30N 33°56' E 134°59'611.8
2018-Jun-14 02:00N 33°50' E 135°01'611.8
2018-Jun-14 01:30N 33°46' E 135°05'612.2
2018-Jun-14 01:00N 33°41' E 135°10'7 0.2
2018-Jun-12 16:07N 33°46' E 135°04'114.4
2018-Jun-12 16:01N 33°47' E 135°03'713.4
2018-Jun-12 15:30N 33°53' E 134°59'714.1
2018-Jun-12 15:00N 34°00' E 134°59'713.9
2018-Jun-12 14:30N 34°07' E 134°59'714.3
2018-Jun-12 14:00N 34°15' E 134°58'713.7
2018-Jun-12 13:30N 34°21' E 134°60'713.9
2018-Jun-12 13:01N 34°28' E 135°02'713.4
2018-Jun-12 12:30N 34°35' E 135°04'510.3
2018-Jun-12 12:00N 34°37' E 134°58'611.8
2018-Jun-12 11:30N 34°34' E 134°51'611.5
2018-Jun-12 11:01N 34°32' E 134°45'612.5
2018-Jun-12 10:31N 34°29' E 134°38'713.0
2018-Jun-12 10:00N 34°26' E 134°31'713.6
2018-Jun-12 09:30N 34°24' E 134°23'713.4
2018-Jun-12 08:59N 34°23' E 134°15'  
Track history (hours):
 
Tides and Currents Weather Stations Pressure Air Temp Water Temp Dewpoint Dewpoint Depression Visibility Wind Speed Wind Dir Waves Ship Positions

Nobility

Last reported at 2018-Jun-21 19:08 UTC. Time now 2018-Jun-22 00:00 UTC.
Position N 34°25' E 134°10'.

Length 146 m; draft 7.2 m.

Type: Ship (hazmat cat A). MMSI: 636015465.

Date/timePositionNaut miles runAvg speedWind from/ knotsBaromVisibWave heightAir tempDewpointWater temp
2018-Jun-21 19:08N 34°25' E 134°10'215.6
2018-Jun-21 19:00N 34°25' E 134°12'715.0
2018-Jun-21 18:30N 34°25' E 134°21'815.0
2018-Jun-21 18:00N 34°28' E 134°30'714.9
2018-Jun-21 17:30N 34°30' E 134°38'815.1
2018-Jun-21 17:00N 34°33' E 134°47'816.1
2018-Jun-21 16:30N 34°37' E 134°56'713.8
2018-Jun-21 16:00N 34°36' E 135°04'714.0
2018-Jun-21 15:30N 34°36' E 135°12'612.2
2018-Jun-21 15:00N 34°40' E 135°18'1 2.6
2018-Jun-21 14:26N 34°41' E 135°17'0 0.1
2018-Jun-21 13:56N 34°41' E 135°17'0 0.0
2018-Jun-21 13:29N 34°41' E 135°17'0 0.0
2018-Jun-21 12:59N 34°41' E 135°17'0 0.0
2018-Jun-21 12:29N 34°41' E 135°17'0 0.0
2018-Jun-21 11:56N 34°41' E 135°17'0 0.0
2018-Jun-21 11:29N 34°41' E 135°17'0 0.0
2018-Jun-21 10:50N 34°41' E 135°17'0 0.0
2018-Jun-21 10:20N 34°41' E 135°17'0 0.0
2018-Jun-21 09:56N 34°41' E 135°17'0 0.0
2018-Jun-21 09:26N 34°41' E 135°17'0 0.0
2018-Jun-21 08:50N 34°41' E 135°17'0 0.0
2018-Jun-21 08:30N 34°41' E 135°17'1 1.9
2018-Jun-21 08:00N 34°41' E 135°18'611.4
2018-Jun-21 07:31N 34°35' E 135°17'714.8
2018-Jun-21 07:01N 34°29' E 135°12'815.2
2018-Jun-21 06:30N 34°24' E 135°05'815.0
2018-Jun-21 06:01N 34°18' E 134°60'815.8
2018-Jun-21 05:31N 34°10' E 134°59'815.3
2018-Jun-21 05:01N 34°03' E 134°59'815.4
2018-Jun-21 04:30N 33°55' E 134°59'714.4
2018-Jun-21 04:01N 33°48' E 135°02'815.4
2018-Jun-21 03:31N 33°43' E 135°08'815.4
2018-Jun-21 02:59N 33°36' E 135°14'3 0.1
2018-Jun-19 08:20N 33°38' E 135°12'1212.4
2018-Jun-19 07:21N 33°48' E 135°03'512.5
2018-Jun-19 06:56N 33°52' E 134°59'512.1
2018-Jun-19 06:30N 33°57' E 134°58'612.7
2018-Jun-19 06:00N 34°04' E 134°58'612.9
2018-Jun-19 05:30N 34°10' E 134°58'713.3
2018-Jun-19 05:00N 34°17' E 134°58'612.4
2018-Jun-19 04:30N 34°23' E 135°00'612.5
2018-Jun-19 04:00N 34°29' E 135°02'612.2
2018-Jun-19 03:31N 34°35' E 135°04'510.1
2018-Jun-19 02:59N 34°37' E 134°58'612.4
2018-Jun-19 02:30N 34°34' E 134°51'612.5
2018-Jun-19 02:00N 34°32' E 134°45'713.2
2018-Jun-19 01:30N 34°29' E 134°37'713.4
2018-Jun-19 01:00N 34°27' E 134°30'713.3
2018-Jun-19 00:30N 34°24' E 134°22'713.2
2018-Jun-18 23:59N 34°24' E 134°14'  
2018-Jun-14 20:59N 34°25' E 134°13'714.6
2018-Jun-14 20:30N 34°25' E 134°22'714.6
2018-Jun-14 20:00N 34°28' E 134°30'714.7
2018-Jun-14 19:30N 34°30' E 134°38'714.4
2018-Jun-14 19:00N 34°33' E 134°46'713.6
2018-Jun-14 18:30N 34°35' E 134°54'611.8
2018-Jun-14 17:59N 34°37' E 135°01'611.8
2018-Jun-14 17:30N 34°36' E 135°08'714.1
2018-Jun-14 17:00N 34°37' E 135°16'4 8.4
2018-Jun-14 16:30N 34°41' E 135°17'0 0.5
2018-Jun-14 16:00N 34°41' E 135°17'0 0.0
2018-Jun-14 15:30N 34°41' E 135°17'0 0.0
2018-Jun-14 14:54N 34°41' E 135°17'0 0.0
2018-Jun-14 14:30N 34°41' E 135°17'0 0.0
2018-Jun-14 14:00N 34°41' E 135°17'0 0.0
2018-Jun-14 13:30N 34°41' E 135°17'0 0.0
2018-Jun-14 13:00N 34°41' E 135°17'0 0.0
2018-Jun-14 12:30N 34°41' E 135°17'0 0.0
2018-Jun-14 12:00N 34°41' E 135°17'0 0.0
2018-Jun-14 11:30N 34°41' E 135°17'0 0.0
2018-Jun-14 11:00N 34°41' E 135°17'0 0.0
2018-Jun-14 10:30N 34°41' E 135°17'0 0.0
2018-Jun-14 10:00N 34°41' E 135°17'0 0.0
2018-Jun-14 09:30N 34°41' E 135°17'0 0.0
2018-Jun-14 09:00N 34°41' E 135°17'0 0.0
2018-Jun-14 08:30N 34°41' E 135°17'0 0.0
2018-Jun-14 08:00N 34°41' E 135°17'0 0.0
2018-Jun-14 07:30N 34°41' E 135°17'0 0.7
2018-Jun-14 07:01N 34°41' E 135°18'5 9.1
2018-Jun-14 06:29N 34°37' E 135°18'611.8
2018-Jun-14 06:00N 34°32' E 135°15'612.2
2018-Jun-14 05:31N 34°27' E 135°10'611.8
2018-Jun-14 05:00N 34°23' E 135°05'612.0
2018-Jun-14 04:31N 34°19' E 134°60'5 9.8
2018-Jun-14 04:00N 34°14' E 134°59'611.1
2018-Jun-14 03:31N 34°09' E 134°59'612.5
2018-Jun-14 03:01N 34°02' E 134°59'612.6
2018-Jun-14 02:30N 33°56' E 134°59'611.8
2018-Jun-14 02:00N 33°50' E 135°01'611.8
2018-Jun-14 01:30N 33°46' E 135°05'612.2
2018-Jun-14 01:00N 33°41' E 135°10'7 0.2
2018-Jun-12 16:07N 33°46' E 135°04'114.4
2018-Jun-12 16:01N 33°47' E 135°03'713.4
2018-Jun-12 15:30N 33°53' E 134°59'714.1
2018-Jun-12 15:00N 34°00' E 134°59'713.9
2018-Jun-12 14:30N 34°07' E 134°59'714.3
2018-Jun-12 14:00N 34°15' E 134°58'713.7
2018-Jun-12 13:30N 34°21' E 134°60'713.9
2018-Jun-12 13:01N 34°28' E 135°02'713.4
2018-Jun-12 12:30N 34°35' E 135°04'510.3
2018-Jun-12 12:00N 34°37' E 134°58'611.8
2018-Jun-12 11:30N 34°34' E 134°51'611.5
2018-Jun-12 11:01N 34°32' E 134°45'612.5
2018-Jun-12 10:31N 34°29' E 134°38'713.0
2018-Jun-12 10:00N 34°26' E 134°31'713.6
2018-Jun-12 09:30N 34°24' E 134°23'713.4
2018-Jun-12 08:59N 34°23' E 134°15'  

Dump ship's entire track history